<?xml version="1.0" encoding="UTF-8" standalone="no" ?>
<gpx xmlns="http://www.topografix.com/GPX/1/1" xmlns:xsi="http://www.w3.org/2001/XMLSchema-instance" xsi:schemaLocation="http://www.topografix.com/GPX/1/1 http://www.topografix.com/GPX/1/1/gpx.xsd" version="1.1" creator="VisuGPX - https://www.visugpx.com">
  <metadata>
    <name>De Meillerie à Salvigny</name>
    <desc><![CDATA[Randonnée en Haute-Savoie]]></desc>
  </metadata>
  <trk>
    <name><![CDATA[ACTIVE LOG: 27 JUL 2015 13:58]]></name>
    <trkseg>
      <trkpt lat="46.29307" lon="6.78314">
        <ele>1006.16</ele>
        <time>2015-07-27T11:58:45Z</time>
      </trkpt>
      <trkpt lat="46.29293" lon="6.78317">
        <ele>995.1</ele>
        <time>2015-07-27T11:59:50Z</time>
      </trkpt>
      <trkpt lat="46.29293" lon="6.78317">
        <ele>995.1</ele>
        <time>2015-07-27T12:00:55Z</time>
      </trkpt>
      <trkpt lat="46.29281" lon="6.78325">
        <ele>995.1</ele>
        <time>2015-07-27T12:02:00Z</time>
      </trkpt>
      <trkpt lat="46.29225" lon="6.78354">
        <ele>996.54</ele>
        <time>2015-07-27T12:03:05Z</time>
      </trkpt>
      <trkpt lat="46.29195" lon="6.78346">
        <ele>997.51</ele>
        <time>2015-07-27T12:04:10Z</time>
      </trkpt>
      <trkpt lat="46.29141" lon="6.78369">
        <ele>1001.35</ele>
        <time>2015-07-27T12:05:15Z</time>
      </trkpt>
      <trkpt lat="46.29117" lon="6.78375">
        <ele>1011.44</ele>
        <time>2015-07-27T12:06:20Z</time>
      </trkpt>
      <trkpt lat="46.29097" lon="6.78394">
        <ele>1020.58</ele>
        <time>2015-07-27T12:07:25Z</time>
      </trkpt>
      <trkpt lat="46.29084" lon="6.78428">
        <ele>1030.19</ele>
        <time>2015-07-27T12:08:30Z</time>
      </trkpt>
      <trkpt lat="46.29067" lon="6.78468">
        <ele>1036.44</ele>
        <time>2015-07-27T12:09:35Z</time>
      </trkpt>
      <trkpt lat="46.29046" lon="6.785">
        <ele>1047.49</ele>
        <time>2015-07-27T12:10:40Z</time>
      </trkpt>
      <trkpt lat="46.29029" lon="6.78536">
        <ele>1056.15</ele>
        <time>2015-07-27T12:11:45Z</time>
      </trkpt>
      <trkpt lat="46.29013" lon="6.78557">
        <ele>1066.24</ele>
        <time>2015-07-27T12:12:50Z</time>
      </trkpt>
      <trkpt lat="46.29006" lon="6.78549">
        <ele>1070.57</ele>
        <time>2015-07-27T12:13:55Z</time>
      </trkpt>
      <trkpt lat="46.28993" lon="6.78587">
        <ele>1080.18</ele>
        <time>2015-07-27T12:15:00Z</time>
      </trkpt>
      <trkpt lat="46.28972" lon="6.78613">
        <ele>1090.75</ele>
        <time>2015-07-27T12:16:05Z</time>
      </trkpt>
      <trkpt lat="46.28953" lon="6.7864">
        <ele>1100.37</ele>
        <time>2015-07-27T12:17:10Z</time>
      </trkpt>
      <trkpt lat="46.28947" lon="6.78646">
        <ele>1108.54</ele>
        <time>2015-07-27T12:18:15Z</time>
      </trkpt>
      <trkpt lat="46.28914" lon="6.78683">
        <ele>1119.11</ele>
        <time>2015-07-27T12:19:20Z</time>
      </trkpt>
      <trkpt lat="46.28902" lon="6.78702">
        <ele>1127.28</ele>
        <time>2015-07-27T12:20:25Z</time>
      </trkpt>
      <trkpt lat="46.28886" lon="6.78662">
        <ele>1131.13</ele>
        <time>2015-07-27T12:21:30Z</time>
      </trkpt>
      <trkpt lat="46.28876" lon="6.78607">
        <ele>1139.3</ele>
        <time>2015-07-27T12:22:35Z</time>
      </trkpt>
      <trkpt lat="46.28879" lon="6.78551">
        <ele>1146.99</ele>
        <time>2015-07-27T12:23:40Z</time>
      </trkpt>
      <trkpt lat="46.28864" lon="6.78487">
        <ele>1154.2</ele>
        <time>2015-07-27T12:24:45Z</time>
      </trkpt>
      <trkpt lat="46.28854" lon="6.78434">
        <ele>1161.41</ele>
        <time>2015-07-27T12:25:50Z</time>
      </trkpt>
      <trkpt lat="46.2883" lon="6.78396">
        <ele>1169.58</ele>
        <time>2015-07-27T12:26:55Z</time>
      </trkpt>
      <trkpt lat="46.28804" lon="6.78351">
        <ele>1179.19</ele>
        <time>2015-07-27T12:28:00Z</time>
      </trkpt>
      <trkpt lat="46.28785" lon="6.78312">
        <ele>1187.37</ele>
        <time>2015-07-27T12:29:05Z</time>
      </trkpt>
      <trkpt lat="46.28757" lon="6.78292">
        <ele>1196.98</ele>
        <time>2015-07-27T12:30:10Z</time>
      </trkpt>
      <trkpt lat="46.28742" lon="6.78308">
        <ele>1206.11</ele>
        <time>2015-07-27T12:31:15Z</time>
      </trkpt>
      <trkpt lat="46.28705" lon="6.78309">
        <ele>1211.4</ele>
        <time>2015-07-27T12:32:20Z</time>
      </trkpt>
      <trkpt lat="46.28681" lon="6.78309">
        <ele>1219.09</ele>
        <time>2015-07-27T12:33:25Z</time>
      </trkpt>
      <trkpt lat="46.28643" lon="6.78304">
        <ele>1224.38</ele>
        <time>2015-07-27T12:34:30Z</time>
      </trkpt>
      <trkpt lat="46.28602" lon="6.78306">
        <ele>1232.55</ele>
        <time>2015-07-27T12:35:35Z</time>
      </trkpt>
      <trkpt lat="46.28563" lon="6.78273">
        <ele>1240.72</ele>
        <time>2015-07-27T12:36:40Z</time>
      </trkpt>
      <trkpt lat="46.28544" lon="6.78241">
        <ele>1249.85</ele>
        <time>2015-07-27T12:37:45Z</time>
      </trkpt>
      <trkpt lat="46.28512" lon="6.78245">
        <ele>1257.54</ele>
        <time>2015-07-27T12:38:50Z</time>
      </trkpt>
      <trkpt lat="46.28508" lon="6.78265">
        <ele>1262.35</ele>
        <time>2015-07-27T12:39:55Z</time>
      </trkpt>
      <trkpt lat="46.28518" lon="6.78323">
        <ele>1264.27</ele>
        <time>2015-07-27T12:41:00Z</time>
      </trkpt>
      <trkpt lat="46.28559" lon="6.78389">
        <ele>1267.64</ele>
        <time>2015-07-27T12:42:05Z</time>
      </trkpt>
      <trkpt lat="46.28606" lon="6.78467">
        <ele>1270.04</ele>
        <time>2015-07-27T12:43:10Z</time>
      </trkpt>
      <trkpt lat="46.2862" lon="6.78552">
        <ele>1273.88</ele>
        <time>2015-07-27T12:44:15Z</time>
      </trkpt>
      <trkpt lat="46.2862" lon="6.78655">
        <ele>1274.85</ele>
        <time>2015-07-27T12:45:20Z</time>
      </trkpt>
      <trkpt lat="46.28604" lon="6.78755">
        <ele>1273.88</ele>
        <time>2015-07-27T12:46:25Z</time>
      </trkpt>
      <trkpt lat="46.28591" lon="6.78846">
        <ele>1273.88</ele>
        <time>2015-07-27T12:47:30Z</time>
      </trkpt>
      <trkpt lat="46.2858" lon="6.78943">
        <ele>1275.33</ele>
        <time>2015-07-27T12:48:35Z</time>
      </trkpt>
      <trkpt lat="46.2856" lon="6.79044">
        <ele>1273.88</ele>
        <time>2015-07-27T12:49:40Z</time>
      </trkpt>
      <trkpt lat="46.28537" lon="6.79141">
        <ele>1273.88</ele>
        <time>2015-07-27T12:50:45Z</time>
      </trkpt>
      <trkpt lat="46.28527" lon="6.79172">
        <ele>1273.4</ele>
        <time>2015-07-27T12:51:50Z</time>
      </trkpt>
      <trkpt lat="46.2852" lon="6.79192">
        <ele>1272.92</ele>
        <time>2015-07-27T12:52:55Z</time>
      </trkpt>
      <trkpt lat="46.28502" lon="6.79259">
        <ele>1271.48</ele>
        <time>2015-07-27T12:54:00Z</time>
      </trkpt>
      <trkpt lat="46.28478" lon="6.79349">
        <ele>1268.6</ele>
        <time>2015-07-27T12:55:05Z</time>
      </trkpt>
      <trkpt lat="46.28449" lon="6.79439">
        <ele>1266.67</ele>
        <time>2015-07-27T12:56:10Z</time>
      </trkpt>
      <trkpt lat="46.28421" lon="6.79539">
        <ele>1264.27</ele>
        <time>2015-07-27T12:57:15Z</time>
      </trkpt>
      <trkpt lat="46.2839" lon="6.7964">
        <ele>1263.79</ele>
        <time>2015-07-27T12:58:20Z</time>
      </trkpt>
      <trkpt lat="46.28341" lon="6.79721">
        <ele>1265.71</ele>
        <time>2015-07-27T12:59:25Z</time>
      </trkpt>
      <trkpt lat="46.28291" lon="6.79805">
        <ele>1264.27</ele>
        <time>2015-07-27T13:00:30Z</time>
      </trkpt>
      <trkpt lat="46.2824" lon="6.7987">
        <ele>1264.75</ele>
        <time>2015-07-27T13:01:35Z</time>
      </trkpt>
      <trkpt lat="46.28196" lon="6.79956">
        <ele>1263.79</ele>
        <time>2015-07-27T13:02:40Z</time>
      </trkpt>
      <trkpt lat="46.28118" lon="6.79968">
        <ele>1263.79</ele>
        <time>2015-07-27T13:03:45Z</time>
      </trkpt>
      <trkpt lat="46.28039" lon="6.79928">
        <ele>1267.64</ele>
        <time>2015-07-27T13:04:50Z</time>
      </trkpt>
      <trkpt lat="46.27996" lon="6.79899">
        <ele>1273.4</ele>
        <time>2015-07-27T13:05:55Z</time>
      </trkpt>
      <trkpt lat="46.27934" lon="6.79906">
        <ele>1278.21</ele>
        <time>2015-07-27T13:07:00Z</time>
      </trkpt>
      <trkpt lat="46.27855" lon="6.79887">
        <ele>1283.02</ele>
        <time>2015-07-27T13:08:05Z</time>
      </trkpt>
      <trkpt lat="46.27793" lon="6.79864">
        <ele>1288.78</ele>
        <time>2015-07-27T13:09:10Z</time>
      </trkpt>
      <trkpt lat="46.27736" lon="6.79869">
        <ele>1293.11</ele>
        <time>2015-07-27T13:10:15Z</time>
      </trkpt>
      <trkpt lat="46.27674" lon="6.79908">
        <ele>1300.8</ele>
        <time>2015-07-27T13:11:20Z</time>
      </trkpt>
      <trkpt lat="46.27604" lon="6.79918">
        <ele>1306.09</ele>
        <time>2015-07-27T13:12:23Z</time>
      </trkpt>
    </trkseg>
  </trk>
</gpx>